McDermitt, Nevada
Current Conditions -  °F | °C
As of 4:56 PM on Thursday 27 Nov 2014 (Local Time) from KWMC Reporting Station
Clear Clear  
Wind Chill: 56°   Ceiling: Unl
Heat Index: 56°   Visibility: 10mi
Dew Point: 24°   Wind: 12mph
Humidity: 29%   Direction: 190°S
Pressure: 30.1"   Gusts: NA
Location:  42°N, 117.72°W
Report Text: KWMC 280056Z AUTO 19010KT 10SM CLR 13/M04 A3010 RMK AO2 SLP179 T01331044
Loading
Personal Weather Stations






























Interactive Weather Map New forecast layout! Learn more

10-Day Weather Forecast

Advertisements
Track Severe Weather on mobile